createdAt,value
2022-08-21T00:02:22.184Z,98639.41
2022-08-21T00:05:26.088Z,98638.06
2022-08-21T00:08:28.396Z,98625.09
2022-08-21T00:11:30.791Z,98638.84
2022-08-21T00:14:33.684Z,98646.63
2022-08-21T00:17:36.672Z,98640.16
2022-08-21T00:20:41.120Z,98634.22
2022-08-21T00:23:43.403Z,98621.91
2022-08-21T00:26:46.234Z,98624.38
2022-08-21T00:29:48.617Z,98633.50
2022-08-21T00:32:52.028Z,98628.09
2022-08-21T00:35:54.302Z,98635.69
2022-08-21T00:38:57.280Z,98622.50
2022-08-21T00:41:59.636Z,98625.44
2022-08-21T00:45:03.100Z,98620.84
2022-08-21T00:48:05.867Z,98620.03
2022-08-21T00:51:12.626Z,98620.84
2022-08-21T00:54:18.748Z,98621.09
2022-08-21T00:57:25.580Z,98623.25
2022-08-21T01:00:31.780Z,98627.84
2022-08-21T01:03:35.271Z,98633.75
2022-08-21T01:06:37.479Z,98629.16
2022-08-21T01:09:40.538Z,98631.06
2022-08-21T01:12:42.766Z,98638.59
2022-08-21T01:15:48.384Z,98631.59
2022-08-21T01:18:51.661Z,98632.72
2022-08-21T01:21:54.775Z,98627.91
2022-08-21T01:24:56.980Z,98626.22
2022-08-21T01:28:00.468Z,98618.47
2022-08-21T01:31:04.376Z,98608.53
2022-08-21T01:34:07.363Z,98609.62
2022-08-21T01:37:09.905Z,98615.00
2022-08-21T01:40:13.330Z,98613.09
2022-08-21T01:43:15.639Z,98612.56
2022-08-21T01:46:24.971Z,98611.75
2022-08-21T01:49:27.568Z,98612.84
2022-08-21T01:52:30.123Z,98612.84
2022-08-21T01:55:32.694Z,98611.53
2022-08-21T01:58:34.936Z,98613.13
2022-08-21T02:01:40.433Z,98615.56
2022-08-21T02:04:42.635Z,98617.94
2022-08-21T02:07:50.067Z,98616.84
2022-08-21T02:10:53.448Z,98612.03
2022-08-21T02:13:55.828Z,98617.16
2022-08-21T02:17:05.538Z,98613.41
2022-08-21T02:20:17.389Z,98614.75
2022-08-21T02:23:19.995Z,98611.81
2022-08-21T02:26:28.686Z,98605.63
2022-08-21T02:29:31.064Z,98599.19
2022-08-21T02:32:33.288Z,98602.69
2022-08-21T02:35:35.589Z,98603.50
2022-08-21T02:38:39.676Z,98615.06
2022-08-21T02:41:41.916Z,98612.38
2022-08-21T02:44:44.162Z,98610.47
2022-08-21T02:47:56.036Z,98611.84
2022-08-21T02:51:02.362Z,98602.16
2022-08-21T02:54:04.574Z,98600.25
2022-08-21T02:57:06.817Z,98595.44
2022-08-21T03:00:11.707Z,98595.97
2022-08-21T03:03:15.511Z,98597.84
2022-08-21T03:06:19.055Z,98592.22
2022-08-21T03:09:21.260Z,98596.50
2022-08-21T03:12:24.490Z,98598.91
2022-08-21T03:15:29.231Z,98601.34
2022-08-21T03:18:31.447Z,98604.28
2022-08-21T03:21:34.269Z,98609.41
2022-08-21T03:24:36.485Z,98600.25
2022-08-21T03:27:39.181Z,98601.06
2022-08-21T03:30:44.965Z,98597.06
2022-08-21T03:33:47.335Z,98602.16
2022-08-21T03:36:50.074Z,98607.00
2022-08-21T03:39:52.404Z,98598.94
2022-08-21T03:42:54.714Z,98605.66
2022-08-21T03:45:56.945Z,98600.28
2022-08-21T03:48:59.181Z,98604.56
2022-08-21T03:52:02.299Z,98610.22
2022-08-21T03:55:04.887Z,98611.56
2022-08-21T03:58:16.131Z,98607.28
2022-08-21T04:01:19.568Z,98602.69
2022-08-21T04:04:21.801Z,98610.22
2022-08-21T04:07:23.998Z,98612.09
2022-08-21T04:10:28.136Z,98617.19
2022-08-21T04:13:30.383Z,98623.13
2022-08-21T04:16:32.609Z,98628.50
2022-08-21T04:19:34.844Z,98625.81
2022-08-21T04:22:37.054Z,98624.22
2022-08-21T04:25:39.668Z,98629.84
2022-08-21T04:28:42.163Z,98630.13
2022-08-21T04:31:46.705Z,98634.94
2022-08-21T04:34:48.928Z,98640.31
2022-08-21T04:37:51.439Z,98643.56
2022-08-21T04:40:53.803Z,98641.41
2022-08-21T04:43:58.951Z,98640.59
2022-08-21T04:47:01.568Z,98647.31
2022-08-21T04:50:03.882Z,98649.47
2022-08-21T04:53:13.754Z,98652.41
2022-08-21T04:56:22.250Z,98653.22
2022-08-21T04:59:47.070Z,98650.53
2022-08-21T05:02:50.159Z,98651.87
2022-08-21T05:05:52.598Z,98649.72
2022-08-21T05:09:01.595Z,98643.81
2022-08-21T05:12:04.535Z,98647.31
2022-08-21T05:15:07.198Z,98651.34
2022-08-21T05:18:14.494Z,98649.44
2022-08-21T05:21:16.691Z,98655.09
2022-08-21T05:24:18.952Z,98653.47
2022-08-21T05:27:21.216Z,98657.78
2022-08-21T05:30:29.202Z,98658.34
2022-08-21T05:33:31.509Z,98651.84
2022-08-21T05:36:33.718Z,98650.28
2022-08-21T05:40:04.695Z,98651.91
2022-08-21T05:43:00.111Z,98660.47
2022-08-21T05:46:06.659Z,98666.13
2022-08-21T05:49:09.110Z,98661.03
2022-08-21T05:52:11.851Z,98665.06
2022-08-21T05:55:14.264Z,98660.75
2022-08-21T05:58:18.664Z,98664.78
2022-08-21T06:01:21.113Z,98665.06
2022-08-21T06:04:23.387Z,98665.88
2022-08-21T06:07:25.622Z,98669.91
2022-08-21T06:10:27.968Z,98666.13
2022-08-21T06:13:30.651Z,98659.97
2022-08-21T06:16:33.357Z,98662.91
2022-08-21T06:19:35.961Z,98667.72
2022-08-21T06:22:38.240Z,98672.81
2022-08-21T06:25:40.892Z,98676.34
2022-08-21T06:28:43.691Z,98676.63
2022-08-21T06:31:45.939Z,98677.41
2022-08-21T06:34:50.144Z,98680.63
2022-08-21T06:37:55.332Z,98675.53
2022-08-21T06:40:57.914Z,98687.12
2022-08-21T06:44:00.591Z,98679.84
2022-08-21T06:47:02.829Z,98681.97
2022-08-21T06:50:08.475Z,98675.75
2022-08-21T06:53:13.201Z,98670.13
2022-08-21T06:56:15.471Z,98675.72
2022-08-21T06:59:17.697Z,98682.47
2022-08-21T07:02:19.990Z,98681.16
2022-08-21T07:05:22.935Z,98670.09
2022-08-21T07:08:26.872Z,98679.81
2022-08-21T07:11:29.268Z,98672.25
2022-08-21T07:14:31.507Z,98683.03
2022-08-21T07:17:33.805Z,98680.59
2022-08-21T07:20:36.101Z,98690.03
2022-08-21T07:23:41.496Z,98687.06
2022-08-21T07:26:44.682Z,98690.22
2022-08-21T07:29:46.890Z,98689.16
2022-08-21T07:32:52.608Z,98683.75
2022-08-21T07:35:55.788Z,98681.59
2022-08-21T07:38:58.065Z,98683.47
2022-08-21T07:42:03.003Z,98673.78
2022-08-21T07:45:09.393Z,98682.37
2022-08-21T07:48:12.120Z,98676.19
2022-08-21T07:51:16.061Z,98674.50
2022-08-21T07:54:18.409Z,98674.75
2022-08-21T07:57:31.148Z,98686.25
2022-08-21T08:00:33.903Z,98667.63
2022-08-21T08:03:36.408Z,98660.03
2022-08-21T08:06:38.637Z,98650.28
2022-08-21T08:09:40.826Z,98654.22
2022-08-21T08:12:44.195Z,98649.38
2022-08-21T08:15:46.440Z,98652.13
2022-08-21T08:18:48.674Z,98654.59
2022-08-21T08:21:50.884Z,98639.09
2022-08-21T08:24:54.285Z,98645.84
2022-08-21T08:27:56.485Z,98643.94
2022-08-21T08:30:59.529Z,98639.47
2022-08-21T08:34:01.770Z,98641.69
2022-08-21T08:37:04.954Z,98638.63
2022-08-21T08:40:23.276Z,98645.63
2022-08-21T08:43:25.564Z,98634.75
2022-08-21T08:46:47.929Z,98646.41
2022-08-21T08:50:05.753Z,98649.91
2022-08-21T08:53:13.985Z,98637.97
2022-08-21T08:56:27.777Z,98637.44
2022-08-21T08:59:43.902Z,98646.66
2022-08-21T09:02:47.253Z,98649.09
2022-08-21T09:05:54.472Z,98650.25
2022-08-21T09:09:12.419Z,98651.31
2022-08-21T09:13:12.023Z,98650.25
2022-08-21T09:16:34.385Z,98654.56
2022-08-21T09:20:00.879Z,98654.50
2022-08-21T09:23:05.811Z,98657.69
2022-08-21T09:26:18.942Z,98659.34
2022-08-21T09:29:24.477Z,98658.75
2022-08-21T09:32:37.669Z,98654.97
2022-08-21T09:35:54.457Z,98657.84
2022-08-21T09:38:57.620Z,98652.66
2022-08-21T09:42:06.391Z,98655.28
2022-08-21T09:45:15.106Z,98657.31
2022-08-21T09:48:26.979Z,98658.41
2022-08-21T09:51:36.408Z,98653.13
2022-08-21T09:54:41.277Z,98651.66
2022-08-21T09:57:50.596Z,98654.50
2022-08-21T10:01:02.311Z,98656.78
2022-08-21T10:04:05.136Z,98654.59
2022-08-21T10:07:16.649Z,98661.56
2022-08-21T10:10:23.424Z,98650.97
2022-08-21T10:13:42.221Z,98658.41
2022-08-21T10:16:52.539Z,98659.09
2022-08-21T10:20:08.208Z,98657.97
2022-08-21T10:23:29.717Z,98662.81
2022-08-21T10:26:53.495Z,98669.63
2022-08-21T10:30:01.071Z,98664.53
2022-08-21T10:33:22.148Z,98670.84
2022-08-21T10:36:36.761Z,98660.88
2022-08-21T10:39:56.660Z,98654.19
2022-08-21T10:43:09.720Z,98665.69
2022-08-21T10:46:44.113Z,98664.38
2022-08-21T10:50:26.569Z,98658.84
2022-08-21T10:53:48.120Z,98658.00
2022-08-21T10:56:54.882Z,98648.00
2022-08-21T11:00:12.492Z,98651.63
2022-08-21T11:03:18.522Z,98650.78
2022-08-21T11:06:31.168Z,98650.28
2022-08-21T11:09:33.617Z,98645.28
2022-08-21T11:12:44.745Z,98644.91
2022-08-21T11:16:00.468Z,98647.97
2022-08-21T11:19:13.734Z,98638.84
2022-08-21T11:22:22.652Z,98639.97
2022-08-21T11:25:36.975Z,98646.38
2022-08-21T11:29:04.014Z,98640.38
2022-08-21T11:32:21.383Z,98640.09
2022-08-21T11:35:41.627Z,98631.53
2022-08-21T11:38:48.469Z,98637.41
2022-08-21T11:42:08.840Z,98636.03
2022-08-21T11:45:28.222Z,98635.81
2022-08-21T11:48:52.543Z,98636.41
2022-08-21T11:51:58.683Z,98641.44
2022-08-21T11:55:05.469Z,98635.34
2022-08-21T11:58:27.237Z,98634.94
2022-08-21T12:01:36.937Z,98629.84
2022-08-21T12:04:58.137Z,98624.69
2022-08-21T12:08:27.332Z,98625.38
2022-08-21T12:11:30.693Z,98622.41
2022-08-21T12:14:42.468Z,98625.03
2022-08-21T12:18:21.170Z,98617.59
2022-08-21T12:21:27.671Z,98622.59
2022-08-21T12:24:49.384Z,98609.34
2022-08-21T12:28:04.362Z,98611.97
2022-08-21T12:31:18.796Z,98607.75
2022-08-21T12:34:22.553Z,98612.72
2022-08-21T12:37:41.187Z,98609.88
2022-08-21T12:40:54.565Z,98607.25
2022-08-21T12:44:10.408Z,98603.56
2022-08-21T12:48:05.220Z,98602.78
2022-08-21T12:51:17.133Z,98589.66
2022-08-21T12:54:31.795Z,98585.06
2022-08-21T12:57:37.955Z,98591.94
2022-08-21T13:00:50.175Z,98583.44
2022-08-21T13:03:58.888Z,98583.44
2022-08-21T13:07:13.312Z,98578.53
2022-08-21T13:10:25.061Z,98565.38
2022-08-21T13:13:28.754Z,98566.31
2022-08-21T13:16:32.199Z,98573.03
2022-08-21T13:19:35.244Z,98563.22
2022-08-21T13:22:44.695Z,98563.31
2022-08-21T13:25:47.044Z,98560.75
2022-08-21T13:28:50.555Z,98559.59
2022-08-21T13:31:59.560Z,98551.69
2022-08-21T13:35:10.376Z,98547.31
2022-08-21T13:38:12.806Z,98555.53
2022-08-21T13:41:24.632Z,98548.88
2022-08-21T13:44:37.228Z,98549.22
2022-08-21T13:47:39.598Z,98547.22
2022-08-21T13:50:43.698Z,98538.78
2022-08-21T13:53:53.192Z,98551.53
2022-08-21T13:56:56.332Z,98549.91
2022-08-21T14:00:28.614Z,98546.09
2022-08-21T14:03:42.778Z,98541.91
2022-08-21T14:06:45.017Z,98548.22
2022-08-21T14:09:48.303Z,98543.81
2022-08-21T14:12:55.565Z,98537.19
2022-08-21T14:16:00.127Z,98538.69
2022-08-21T14:19:03.973Z,98544.09
2022-08-21T14:22:39.965Z,98541.81
2022-08-21T14:25:44.925Z,98545.28
2022-08-21T14:28:47.177Z,98541.69
2022-08-21T14:31:57.857Z,98544.09
2022-08-21T14:35:00.916Z,98547.03
2022-08-21T14:38:03.271Z,98548.84
2022-08-21T14:41:12.570Z,98546.75
2022-08-21T14:44:16.037Z,98545.41
2022-08-21T14:47:18.297Z,98545.31
2022-08-21T14:50:20.840Z,98555.56
2022-08-21T14:53:23.054Z,98555.75
2022-08-21T14:56:26.778Z,98555.44
2022-08-21T14:59:29.528Z,98543.94
2022-08-21T15:02:31.888Z,98542.19
2022-08-21T15:05:34.427Z,98539.19
2022-08-21T15:08:37.035Z,98536.34
2022-08-21T15:11:42.208Z,98534.88
2022-08-21T15:14:45.261Z,98534.84
2022-08-21T15:17:48.539Z,98542.03
2022-08-21T15:20:51.048Z,98544.31
2022-08-21T15:23:54.796Z,98545.44
2022-08-21T15:26:58.047Z,98541.66
2022-08-21T15:30:00.510Z,98545.78
2022-08-21T15:33:02.752Z,98549.59
2022-08-21T15:36:05.166Z,98541.69
2022-08-21T15:39:07.412Z,98536.72
2022-08-21T15:42:11.754Z,98547.97
2022-08-21T15:45:14.726Z,98548.19
2022-08-21T15:48:17.006Z,98558.13
2022-08-21T15:51:19.303Z,98550.63
2022-08-21T15:54:24.538Z,98559.44
2022-08-21T15:57:27.614Z,98556.75
2022-08-21T16:00:31.051Z,98558.59
2022-08-21T16:03:34.158Z,98556.19
2022-08-21T16:06:38.517Z,98558.88
2022-08-21T16:09:55.656Z,98558.38
2022-08-21T16:13:02.347Z,98557.03
2022-08-21T16:16:05.526Z,98560.31
2022-08-21T16:19:08.018Z,98553.91
2022-08-21T16:22:10.291Z,98557.25
2022-08-21T16:25:14.240Z,98560.34
2022-08-21T16:28:18.593Z,98552.37
2022-08-21T16:31:20.947Z,98547.53
2022-08-21T16:34:23.167Z,98557.72
2022-08-21T16:37:25.395Z,98561.81
2022-08-21T16:40:28.563Z,98551.84
2022-08-21T16:43:31.190Z,98560.00
2022-08-21T16:46:36.743Z,98549.25
2022-08-21T16:49:39.131Z,98550.38
2022-08-21T16:52:41.443Z,98550.09
2022-08-21T16:55:45.134Z,98553.06
2022-08-21T16:58:52.447Z,98544.34
2022-08-21T17:01:55.050Z,98548.88
2022-08-21T17:04:57.645Z,98541.34
2022-08-21T17:07:59.831Z,98541.91
2022-08-21T17:11:03.197Z,98540.06
2022-08-21T17:14:11.341Z,98541.41
2022-08-21T17:17:14.403Z,98546.78
2022-08-21T17:20:17.592Z,98535.19
2022-08-21T17:23:20.158Z,98540.66
2022-08-21T17:26:23.399Z,98537.94
2022-08-21T17:29:28.594Z,98542.16
2022-08-21T17:32:30.903Z,98537.25
2022-08-21T17:35:33.113Z,98532.28
2022-08-21T17:38:36.300Z,98542.50
2022-08-21T17:41:40.911Z,98538.28
2022-08-21T17:44:45.662Z,98542.63
2022-08-21T17:47:48.142Z,98543.22
2022-08-21T17:50:50.395Z,98530.53
2022-08-21T17:53:52.744Z,98547.25
2022-08-21T17:56:56.144Z,98550.19
2022-08-21T17:59:58.741Z,98549.12
2022-08-21T18:03:09.602Z,98546.91
2022-08-21T18:06:15.588Z,98549.31
2022-08-21T18:09:20.860Z,98545.06
2022-08-21T18:12:23.070Z,98559.22
2022-08-21T18:15:25.419Z,98555.44
2022-08-21T18:18:29.010Z,98563.25
2022-08-21T18:21:31.282Z,98565.47
2022-08-21T18:24:33.909Z,98556.62
2022-08-21T18:27:36.419Z,98561.22
2022-08-21T18:30:41.060Z,98556.69
2022-08-21T18:33:58.408Z,98563.41
2022-08-21T18:37:21.293Z,98565.31
2022-08-21T18:40:53.784Z,98563.94
2022-08-21T18:44:19.263Z,98564.22
2022-08-21T18:47:28.794Z,98567.44
2022-08-21T18:50:32.106Z,98557.50
2022-08-21T18:53:36.861Z,98563.69
2022-08-21T18:56:41.735Z,98558.28
2022-08-21T18:59:44.076Z,98562.88
2022-08-21T19:02:46.419Z,98572.31
2022-08-21T19:05:49.626Z,98568.78
2022-08-21T19:08:52.072Z,98569.59
2022-08-21T19:11:54.455Z,98566.38
2022-08-21T19:14:56.754Z,98559.38
2022-08-21T19:18:00.360Z,98562.38
2022-08-21T19:21:02.700Z,98557.22
2022-08-21T19:24:17.645Z,98554.00
2022-08-21T19:27:20.361Z,98549.12
2022-08-21T19:30:26.251Z,98548.84
2022-08-21T19:33:35.515Z,98551.31
2022-08-21T19:36:37.786Z,98546.44
2022-08-21T19:39:43.653Z,98547.28
2022-08-21T19:42:49.249Z,98543.50
2022-08-21T19:45:56.516Z,98541.91
2022-08-21T19:48:59.578Z,98538.06
2022-08-21T19:52:12.914Z,98532.16
2022-08-21T19:55:24.949Z,98545.09
2022-08-21T19:58:36.670Z,98538.94
2022-08-21T20:01:40.105Z,98534.34
2022-08-21T20:04:53.856Z,98537.31
2022-08-21T20:07:57.245Z,98533.81
2022-08-21T20:11:02.496Z,98530.59
2022-08-21T20:14:07.976Z,98532.44
2022-08-21T20:17:12.502Z,98536.22
2022-08-21T20:20:16.111Z,98530.31
2022-08-21T20:23:19.340Z,98520.34
2022-08-21T20:26:32.789Z,98521.16
2022-08-21T20:29:39.142Z,98520.66
2022-08-21T20:32:43.524Z,98526.03
2022-08-21T20:35:48.592Z,98517.97
2022-08-21T20:38:54.348Z,98520.38
2022-08-21T20:41:56.814Z,98510.09
2022-08-21T20:44:59.187Z,98505.06
2022-08-21T20:48:04.828Z,98505.69
2022-08-21T20:51:36.006Z,98494.63
2022-08-21T20:54:51.805Z,98490.28
2022-08-21T20:57:55.237Z,98496.19
2022-08-21T21:01:02.626Z,98492.97
2022-08-21T21:04:19.498Z,98487.62
2022-08-21T21:07:26.332Z,98491.72
2022-08-21T21:10:35.424Z,98497.41
2022-08-21T21:13:48.355Z,98497.47
2022-08-21T21:16:59.205Z,98498.87
2022-08-21T21:20:14.065Z,98499.16
2022-08-21T21:23:34.998Z,98499.94
2022-08-21T21:30:22.276Z,98500.91
2022-08-21T21:33:24.568Z,98498.44
2022-08-21T21:36:43.964Z,98491.97
2022-08-21T21:40:38.278Z,98491.69
2022-08-21T21:43:58.407Z,98494.38
2022-08-21T21:47:22.149Z,98491.47
2022-08-21T21:50:28.923Z,98490.13
2022-08-21T21:54:03.886Z,98495.03
2022-08-21T21:57:30.889Z,98492.09
2022-08-21T22:00:35.697Z,98490.81
2022-08-21T22:04:11.797Z,98491.81
2022-08-21T22:07:29.400Z,98499.25
2022-08-21T22:10:43.139Z,98508.09
2022-08-21T22:13:57.458Z,98516.16
2022-08-21T22:17:06.733Z,98489.81
2022-08-21T22:20:35.833Z,98484.50
2022-08-21T22:23:43.706Z,98484.06
2022-08-21T22:26:50.010Z,98493.00
2022-08-21T22:29:55.299Z,98493.59
2022-08-21T22:32:59.782Z,98490.88
2022-08-21T22:36:17.589Z,98487.88
2022-08-21T22:43:04.076Z,98482.81
2022-08-21T22:46:10.601Z,98479.53
2022-08-21T22:49:33.456Z,98468.25
2022-08-21T22:52:37.144Z,98471.50
2022-08-21T22:55:45.932Z,98475.75
2022-08-21T22:59:04.922Z,98472.81
2022-08-21T23:02:36.029Z,98470.38
2022-08-21T23:05:39.155Z,98464.78
2022-08-21T23:08:41.342Z,98466.41
2022-08-21T23:11:51.010Z,98461.06
2022-08-21T23:14:55.063Z,98465.56
2022-08-21T23:18:06.306Z,98467.91
2022-08-21T23:21:23.635Z,98468.19
2022-08-21T23:24:46.709Z,98469.19
2022-08-21T23:28:05.853Z,98461.72
2022-08-21T23:31:51.181Z,98462.34
2022-08-21T23:35:18.002Z,98460.53
2022-08-21T23:38:25.881Z,98467.81
2022-08-21T23:41:44.743Z,98461.94
2022-08-21T23:44:53.060Z,98471.38
2022-08-21T23:48:31.000Z,98469.75
2022-08-21T23:51:45.312Z,98465.19
2022-08-21T23:54:56.453Z,98471.16
2022-08-21T23:58:04.418Z,98472.00
